sensor_id;sensor_type;location;lat;lon;timestamp;temperature;humidity
46137;DHT22;31871;49.418;8.752;2022-11-11T00:00:27;8.60;99.90
46137;DHT22;31871;49.418;8.752;2022-11-11T00:02:54;8.60;99.90
46137;DHT22;31871;49.418;8.752;2022-11-11T00:05:20;8.50;99.90
46137;DHT22;31871;49.418;8.752;2022-11-11T00:07:46;8.60;99.90
46137;DHT22;31871;49.418;8.752;2022-11-11T00:10:12;8.60;99.90
46137;DHT22;31871;49.418;8.752;2022-11-11T00:12:37;8.50;99.90
46137;DHT22;31871;49.418;8.752;2022-11-11T00:15:03;8.50;99.90
46137;DHT22;31871;49.418;8.752;2022-11-11T00:17:29;8.50;99.90
46137;DHT22;31871;49.418;8.752;2022-11-11T00:20:13;8.40;99.90
46137;DHT22;31871;49.418;8.752;2022-11-11T00:22:58;8.40;99.90
46137;DHT22;31871;49.418;8.752;2022-11-11T00:25:42;8.40;99.90
46137;DHT22;31871;49.418;8.752;2022-11-11T00:28:07;8.30;99.90
46137;DHT22;31871;49.418;8.752;2022-11-11T00:30:33;8.20;99.90
46137;DHT22;31871;49.418;8.752;2022-11-11T00:32:58;8.20;99.90
46137;DHT22;31871;49.418;8.752;2022-11-11T00:35:24;8.20;99.90
46137;DHT22;31871;49.418;8.752;2022-11-11T00:38:09;8.20;99.90
46137;DHT22;31871;49.418;8.752;2022-11-11T00:40:35;8.20;99.90
46137;DHT22;31871;49.418;8.752;2022-11-11T00:43:01;8.20;99.90
46137;DHT22;31871;49.418;8.752;2022-11-11T00:45:27;8.20;99.90
46137;DHT22;31871;49.418;8.752;2022-11-11T00:47:53;8.20;99.90
46137;DHT22;31871;49.418;8.752;2022-11-11T00:50:37;8.20;99.90
46137;DHT22;31871;49.418;8.752;2022-11-11T00:53:23;8.20;99.90
46137;DHT22;31871;49.418;8.752;2022-11-11T00:55:49;8.20;99.90
46137;DHT22;31871;49.418;8.752;2022-11-11T00:58:15;8.30;99.90
46137;DHT22;31871;49.418;8.752;2022-11-11T01:00:42;8.30;99.90
46137;DHT22;31871;49.418;8.752;2022-11-11T01:03:07;8.30;99.90
46137;DHT22;31871;49.418;8.752;2022-11-11T01:05:33;8.20;99.90
46137;DHT22;31871;49.418;8.752;2022-11-11T01:07:58;8.20;99.90
46137;DHT22;31871;49.418;8.752;2022-11-11T01:10:24;8.20;99.90
46137;DHT22;31871;49.418;8.752;2022-11-11T01:13:21;8.20;99.90
46137;DHT22;31871;49.418;8.752;2022-11-11T01:15:49;8.20;99.90
46137;DHT22;31871;49.418;8.752;2022-11-11T01:18:19;8.10;99.90
46137;DHT22;31871;49.418;8.752;2022-11-11T01:20:45;8.10;99.90
46137;DHT22;31871;49.418;8.752;2022-11-11T01:23:12;8.10;99.90
46137;DHT22;31871;49.418;8.752;2022-11-11T01:25:39;8.00;99.90
46137;DHT22;31871;49.418;8.752;2022-11-11T01:28:06;8.00;99.90
46137;DHT22;31871;49.418;8.752;2022-11-11T01:30:33;8.00;99.90
46137;DHT22;31871;49.418;8.752;2022-11-11T01:33:00;8.00;99.90
46137;DHT22;31871;49.418;8.752;2022-11-11T01:35:26;8.00;99.90
46137;DHT22;31871;49.418;8.752;2022-11-11T01:37:52;8.00;99.90
46137;DHT22;31871;49.418;8.752;2022-11-11T01:40:17;8.00;99.90
46137;DHT22;31871;49.418;8.752;2022-11-11T01:45:56;7.90;99.90
46137;DHT22;31871;49.418;8.752;2022-11-11T01:51:26;7.80;99.90
46137;DHT22;31871;49.418;8.752;2022-11-11T01:53:57;7.80;99.90
46137;DHT22;31871;49.418;8.752;2022-11-11T01:56:25;7.80;99.90
46137;DHT22;31871;49.418;8.752;2022-11-11T01:58:53;7.80;99.90
46137;DHT22;31871;49.418;8.752;2022-11-11T02:01:20;7.80;99.90
46137;DHT22;31871;49.418;8.752;2022-11-11T02:03:47;7.70;99.90
46137;DHT22;31871;49.418;8.752;2022-11-11T02:06:33;7.70;99.90
46137;DHT22;31871;49.418;8.752;2022-11-11T02:09:01;7.70;99.90
46137;DHT22;31871;49.418;8.752;2022-11-11T02:11:28;7.70;99.90
46137;DHT22;31871;49.418;8.752;2022-11-11T02:14:14;7.70;99.90
46137;DHT22;31871;49.418;8.752;2022-11-11T02:16:59;7.70;99.90
46137;DHT22;31871;49.418;8.752;2022-11-11T02:19:37;7.70;99.90
46137;DHT22;31871;49.418;8.752;2022-11-11T02:22:09;7.70;99.90
46137;DHT22;31871;49.418;8.752;2022-11-11T02:24:36;7.70;99.90
46137;DHT22;31871;49.418;8.752;2022-11-11T02:27:02;7.60;99.90
46137;DHT22;31871;49.418;8.752;2022-11-11T02:29:29;7.60;99.90
46137;DHT22;31871;49.418;8.752;2022-11-11T02:31:55;7.60;99.90
46137;DHT22;31871;49.418;8.752;2022-11-11T02:34:31;7.60;99.90
46137;DHT22;31871;49.418;8.752;2022-11-11T02:36:57;7.60;99.90
46137;DHT22;31871;49.418;8.752;2022-11-11T02:39:24;7.60;99.90
46137;DHT22;31871;49.418;8.752;2022-11-11T02:41:50;7.60;99.90
46137;DHT22;31871;49.418;8.752;2022-11-11T02:44:22;7.60;99.90
46137;DHT22;31871;49.418;8.752;2022-11-11T02:46:48;7.70;99.90
46137;DHT22;31871;49.418;8.752;2022-11-11T02:49:13;7.60;99.90
46137;DHT22;31871;49.418;8.752;2022-11-11T02:51:39;7.70;99.90
46137;DHT22;31871;49.418;8.752;2022-11-11T02:54:05;7.70;99.90
46137;DHT22;31871;49.418;8.752;2022-11-11T02:56:30;7.70;99.90
46137;DHT22;31871;49.418;8.752;2022-11-11T02:59:14;7.70;99.90
46137;DHT22;31871;49.418;8.752;2022-11-11T03:01:40;7.70;99.90
46137;DHT22;31871;49.418;8.752;2022-11-11T03:04:05;7.70;99.90
46137;DHT22;31871;49.418;8.752;2022-11-11T03:06:31;7.80;99.90
46137;DHT22;31871;49.418;8.752;2022-11-11T03:08:56;7.70;99.90
46137;DHT22;31871;49.418;8.752;2022-11-11T03:11:22;7.70;99.90
46137;DHT22;31871;49.418;8.752;2022-11-11T03:13:55;7.70;99.90
46137;DHT22;31871;49.418;8.752;2022-11-11T03:16:20;7.70;99.90
46137;DHT22;31871;49.418;8.752;2022-11-11T03:19:05;7.60;99.90
46137;DHT22;31871;49.418;8.752;2022-11-11T03:21:30;7.60;99.90
46137;DHT22;31871;49.418;8.752;2022-11-11T03:23:56;7.60;99.90
46137;DHT22;31871;49.418;8.752;2022-11-11T03:26:21;7.60;99.90
46137;DHT22;31871;49.418;8.752;2022-11-11T03:28:47;7.60;99.90
46137;DHT22;31871;49.418;8.752;2022-11-11T03:31:12;7.60;99.90
46137;DHT22;31871;49.418;8.752;2022-11-11T03:33:38;7.60;99.90
46137;DHT22;31871;49.418;8.752;2022-11-11T03:36:04;7.50;99.90
46137;DHT22;31871;49.418;8.752;2022-11-11T03:38:29;7.50;99.90
46137;DHT22;31871;49.418;8.752;2022-11-11T03:40:56;7.50;99.90
46137;DHT22;31871;49.418;8.752;2022-11-11T03:43:24;7.40;99.90
46137;DHT22;31871;49.418;8.752;2022-11-11T03:45:51;7.40;99.90
46137;DHT22;31871;49.418;8.752;2022-11-11T03:48:17;7.40;99.90
46137;DHT22;31871;49.418;8.752;2022-11-11T03:50:43;7.40;99.90
46137;DHT22;31871;49.418;8.752;2022-11-11T03:53:08;7.30;99.90
46137;DHT22;31871;49.418;8.752;2022-11-11T03:55:34;7.30;99.90
46137;DHT22;31871;49.418;8.752;2022-11-11T03:58:00;7.30;99.90
46137;DHT22;31871;49.418;8.752;2022-11-11T04:00:27;7.30;99.90
46137;DHT22;31871;49.418;8.752;2022-11-11T04:03:10;7.30;99.90
46137;DHT22;31871;49.418;8.752;2022-11-11T04:05:54;7.30;99.90
46137;DHT22;31871;49.418;8.752;2022-11-11T04:08:46;7.30;99.90
46137;DHT22;31871;49.418;8.752;2022-11-11T04:11:41;7.30;99.90
46137;DHT22;31871;49.418;8.752;2022-11-11T04:14:10;7.30;99.90
46137;DHT22;31871;49.418;8.752;2022-11-11T04:16:54;7.30;99.90
46137;DHT22;31871;49.418;8.752;2022-11-11T04:19:20;7.30;99.90
46137;DHT22;31871;49.418;8.752;2022-11-11T04:22:04;7.30;99.90
46137;DHT22;31871;49.418;8.752;2022-11-11T04:24:30;7.30;99.90
46137;DHT22;31871;49.418;8.752;2022-11-11T04:27:15;7.30;99.90
46137;DHT22;31871;49.418;8.752;2022-11-11T04:29:41;7.30;99.90
46137;DHT22;31871;49.418;8.752;2022-11-11T04:32:09;7.30;99.90
46137;DHT22;31871;49.418;8.752;2022-11-11T04:34:59;7.30;99.90
46137;DHT22;31871;49.418;8.752;2022-11-11T04:37:26;7.30;99.90
46137;DHT22;31871;49.418;8.752;2022-11-11T04:39:52;7.20;99.90
46137;DHT22;31871;49.418;8.752;2022-11-11T04:42:36;7.20;99.90
46137;DHT22;31871;49.418;8.752;2022-11-11T04:45:04;7.20;99.90
46137;DHT22;31871;49.418;8.752;2022-11-11T04:50:18;7.20;99.90
46137;DHT22;31871;49.418;8.752;2022-11-11T04:52:43;7.10;99.90
46137;DHT22;31871;49.418;8.752;2022-11-11T04:55:09;7.10;99.90
46137;DHT22;31871;49.418;8.752;2022-11-11T04:57:53;7.10;99.90
46137;DHT22;31871;49.418;8.752;2022-11-11T05:00:18;7.10;99.90
46137;DHT22;31871;49.418;8.752;2022-11-11T05:02:44;7.10;99.90
46137;DHT22;31871;49.418;8.752;2022-11-11T05:05:30;7.00;99.90
46137;DHT22;31871;49.418;8.752;2022-11-11T05:08:18;7.00;99.90
46137;DHT22;31871;49.418;8.752;2022-11-11T05:11:03;7.00;99.90
46137;DHT22;31871;49.418;8.752;2022-11-11T05:13:28;6.90;99.90
46137;DHT22;31871;49.418;8.752;2022-11-11T05:16:16;6.80;99.90
46137;DHT22;31871;49.418;8.752;2022-11-11T05:19:01;6.80;99.90
46137;DHT22;31871;49.418;8.752;2022-11-11T05:21:45;6.90;99.90
46137;DHT22;31871;49.418;8.752;2022-11-11T05:24:11;6.80;99.90
46137;DHT22;31871;49.418;8.752;2022-11-11T05:26:55;6.80;99.90
46137;DHT22;31871;49.418;8.752;2022-11-11T05:29:21;6.80;99.90
46137;DHT22;31871;49.418;8.752;2022-11-11T05:31:46;6.80;99.90
46137;DHT22;31871;49.418;8.752;2022-11-11T05:34:12;6.90;99.90
46137;DHT22;31871;49.418;8.752;2022-11-11T05:36:37;6.90;99.90
46137;DHT22;31871;49.418;8.752;2022-11-11T05:39:03;6.80;99.90
46137;DHT22;31871;49.418;8.752;2022-11-11T05:41:28;6.80;99.90
46137;DHT22;31871;49.418;8.752;2022-11-11T05:43:54;6.80;99.90
46137;DHT22;31871;49.418;8.752;2022-11-11T05:46:19;6.80;99.90
46137;DHT22;31871;49.418;8.752;2022-11-11T05:48:45;6.80;99.90
46137;DHT22;31871;49.418;8.752;2022-11-11T05:51:29;6.90;99.90
46137;DHT22;31871;49.418;8.752;2022-11-11T05:53:55;6.90;99.90
46137;DHT22;31871;49.418;8.752;2022-11-11T05:56:21;6.80;99.90
46137;DHT22;31871;49.418;8.752;2022-11-11T05:58:47;6.80;99.90
46137;DHT22;31871;49.418;8.752;2022-11-11T06:01:12;6.90;99.90
46137;DHT22;31871;49.418;8.752;2022-11-11T06:03:38;6.90;99.90
46137;DHT22;31871;49.418;8.752;2022-11-11T06:06:03;6.80;99.90
46137;DHT22;31871;49.418;8.752;2022-11-11T06:08:29;6.80;99.90
46137;DHT22;31871;49.418;8.752;2022-11-11T06:10:54;6.80;99.90
46137;DHT22;31871;49.418;8.752;2022-11-11T06:13:20;6.80;99.90
46137;DHT22;31871;49.418;8.752;2022-11-11T06:15:45;6.90;99.90
46137;DHT22;31871;49.418;8.752;2022-11-11T06:18:11;6.80;99.90
46137;DHT22;31871;49.418;8.752;2022-11-11T06:20:37;6.80;99.90
46137;DHT22;31871;49.418;8.752;2022-11-11T06:23:03;6.90;99.90
46137;DHT22;31871;49.418;8.752;2022-11-11T06:25:30;6.80;99.90
46137;DHT22;31871;49.418;8.752;2022-11-11T06:28:16;6.80;99.90
46137;DHT22;31871;49.418;8.752;2022-11-11T06:30:42;6.80;99.90
46137;DHT22;31871;49.418;8.752;2022-11-11T06:33:08;6.70;99.90
46137;DHT22;31871;49.418;8.752;2022-11-11T06:35:38;6.70;99.90
46137;DHT22;31871;49.418;8.752;2022-11-11T06:38:05;6.70;99.90
46137;DHT22;31871;49.418;8.752;2022-11-11T06:40:31;6.70;99.90
46137;DHT22;31871;49.418;8.752;2022-11-11T06:42:58;6.60;99.90
46137;DHT22;31871;49.418;8.752;2022-11-11T06:45:25;6.70;99.90
46137;DHT22;31871;49.418;8.752;2022-11-11T06:47:51;6.70;99.90
46137;DHT22;31871;49.418;8.752;2022-11-11T06:50:17;6.70;99.90
46137;DHT22;31871;49.418;8.752;2022-11-11T06:52:43;6.70;99.90
46137;DHT22;31871;49.418;8.752;2022-11-11T06:55:09;6.60;99.90
46137;DHT22;31871;49.418;8.752;2022-11-11T06:57:35;6.60;99.90
46137;DHT22;31871;49.418;8.752;2022-11-11T07:00:02;6.70;99.90
46137;DHT22;31871;49.418;8.752;2022-11-11T07:02:28;6.70;99.90
46137;DHT22;31871;49.418;8.752;2022-11-11T07:04:54;6.60;99.90
46137;DHT22;31871;49.418;8.752;2022-11-11T07:07:19;6.60;99.90
46137;DHT22;31871;49.418;8.752;2022-11-11T07:09:45;6.60;99.90
46137;DHT22;31871;49.418;8.752;2022-11-11T07:12:10;6.60;99.90
46137;DHT22;31871;49.418;8.752;2022-11-11T07:14:36;6.60;99.90
46137;DHT22;31871;49.418;8.752;2022-11-11T07:17:01;6.60;99.90
46137;DHT22;31871;49.418;8.752;2022-11-11T07:19:27;6.60;99.90
46137;DHT22;31871;49.418;8.752;2022-11-11T07:21:53;6.50;99.90
46137;DHT22;31871;49.418;8.752;2022-11-11T07:24:18;6.50;99.90
46137;DHT22;31871;49.418;8.752;2022-11-11T07:26:44;6.50;99.90
46137;DHT22;31871;49.418;8.752;2022-11-11T07:29:09;6.60;99.90
46137;DHT22;31871;49.418;8.752;2022-11-11T07:31:36;6.60;99.90
46137;DHT22;31871;49.418;8.752;2022-11-11T07:34:02;6.60;99.90
46137;DHT22;31871;49.418;8.752;2022-11-11T07:36:27;6.60;99.90
46137;DHT22;31871;49.418;8.752;2022-11-11T07:38:53;6.50;99.90
46137;DHT22;31871;49.418;8.752;2022-11-11T07:41:19;6.50;99.90
46137;DHT22;31871;49.418;8.752;2022-11-11T07:43:44;6.50;99.90
46137;DHT22;31871;49.418;8.752;2022-11-11T07:46:10;6.60;99.90
46137;DHT22;31871;49.418;8.752;2022-11-11T07:48:35;6.50;99.90
46137;DHT22;31871;49.418;8.752;2022-11-11T07:51:01;6.60;99.90
46137;DHT22;31871;49.418;8.752;2022-11-11T07:53:26;6.60;99.90
46137;DHT22;31871;49.418;8.752;2022-11-11T07:55:53;6.60;99.90
46137;DHT22;31871;49.418;8.752;2022-11-11T07:58:19;6.60;99.90
46137;DHT22;31871;49.418;8.752;2022-11-11T08:00:44;6.70;99.90
46137;DHT22;31871;49.418;8.752;2022-11-11T08:03:10;6.70;99.90
46137;DHT22;31871;49.418;8.752;2022-11-11T08:05:36;6.80;99.90
46137;DHT22;31871;49.418;8.752;2022-11-11T08:08:05;6.80;99.90
46137;DHT22;31871;49.418;8.752;2022-11-11T08:10:31;6.80;99.90
46137;DHT22;31871;49.418;8.752;2022-11-11T08:12:57;6.90;99.90
46137;DHT22;31871;49.418;8.752;2022-11-11T08:15:42;6.90;99.90
46137;DHT22;31871;49.418;8.752;2022-11-11T08:18:08;6.90;99.90
46137;DHT22;31871;49.418;8.752;2022-11-11T08:20:33;6.90;99.90
46137;DHT22;31871;49.418;8.752;2022-11-11T08:22:59;7.00;99.90
46137;DHT22;31871;49.418;8.752;2022-11-11T08:25:25;7.00;99.90
46137;DHT22;31871;49.418;8.752;2022-11-11T08:28:01;7.00;99.90
46137;DHT22;31871;49.418;8.752;2022-11-11T08:30:27;7.10;99.90
46137;DHT22;31871;49.418;8.752;2022-11-11T08:33:00;7.10;99.90
46137;DHT22;31871;49.418;8.752;2022-11-11T08:35:26;7.10;99.90
46137;DHT22;31871;49.418;8.752;2022-11-11T08:37:53;7.10;99.90
46137;DHT22;31871;49.418;8.752;2022-11-11T08:40:18;7.10;99.90
46137;DHT22;31871;49.418;8.752;2022-11-11T08:42:44;7.20;99.90
46137;DHT22;31871;49.418;8.752;2022-11-11T08:45:10;7.20;99.90
46137;DHT22;31871;49.418;8.752;2022-11-11T08:47:36;7.20;99.90
46137;DHT22;31871;49.418;8.752;2022-11-11T08:50:02;7.20;99.90
46137;DHT22;31871;49.418;8.752;2022-11-11T08:52:28;7.20;99.90
46137;DHT22;31871;49.418;8.752;2022-11-11T08:54:54;7.20;99.90
46137;DHT22;31871;49.418;8.752;2022-11-11T08:57:19;7.30;99.90
46137;DHT22;31871;49.418;8.752;2022-11-11T08:59:45;7.30;99.90
46137;DHT22;31871;49.418;8.752;2022-11-11T09:02:11;7.40;99.90
46137;DHT22;31871;49.418;8.752;2022-11-11T09:04:38;7.40;99.90
46137;DHT22;31871;49.418;8.752;2022-11-11T09:07:05;7.50;99.90
46137;DHT22;31871;49.418;8.752;2022-11-11T09:09:30;7.40;99.90
46137;DHT22;31871;49.418;8.752;2022-11-11T09:11:56;7.50;99.90
46137;DHT22;31871;49.418;8.752;2022-11-11T09:14:21;7.50;99.90
46137;DHT22;31871;49.418;8.752;2022-11-11T09:16:47;7.50;99.90
46137;DHT22;31871;49.418;8.752;2022-11-11T09:19:13;7.60;99.90
46137;DHT22;31871;49.418;8.752;2022-11-11T09:21:38;7.60;99.90
46137;DHT22;31871;49.418;8.752;2022-11-11T09:24:04;7.70;99.90
46137;DHT22;31871;49.418;8.752;2022-11-11T09:26:30;7.70;99.90
46137;DHT22;31871;49.418;8.752;2022-11-11T09:28:56;7.70;99.90
46137;DHT22;31871;49.418;8.752;2022-11-11T09:31:21;7.80;99.90
46137;DHT22;31871;49.418;8.752;2022-11-11T09:33:49;7.80;99.90
46137;DHT22;31871;49.418;8.752;2022-11-11T09:36:14;8.00;99.90
46137;DHT22;31871;49.418;8.752;2022-11-11T09:38:40;7.90;99.90
46137;DHT22;31871;49.418;8.752;2022-11-11T09:41:14;7.90;99.90
46137;DHT22;31871;49.418;8.752;2022-11-11T09:44:00;7.80;99.90
46137;DHT22;31871;49.418;8.752;2022-11-11T09:52:19;8.00;99.90
46137;DHT22;31871;49.418;8.752;2022-11-11T09:54:57;8.10;99.90
46137;DHT22;31871;49.418;8.752;2022-11-11T10:00:15;8.40;99.90
46137;DHT22;31871;49.418;8.752;2022-11-11T10:02:58;8.60;99.90
46137;DHT22;31871;49.418;8.752;2022-11-11T10:05:38;8.90;99.90
46137;DHT22;31871;49.418;8.752;2022-11-11T10:08:25;9.20;99.90
46137;DHT22;31871;49.418;8.752;2022-11-11T10:10:54;9.40;99.90
46137;DHT22;31871;49.418;8.752;2022-11-11T10:13:29;9.60;99.90
46137;DHT22;31871;49.418;8.752;2022-11-11T10:16:35;9.70;99.90
46137;DHT22;31871;49.418;8.752;2022-11-11T10:21:52;10.00;99.90
46137;DHT22;31871;49.418;8.752;2022-11-11T10:24:40;10.20;99.90
46137;DHT22;31871;49.418;8.752;2022-11-11T10:27:20;10.30;99.90
46137;DHT22;31871;49.418;8.752;2022-11-11T10:29:47;10.30;99.90
46137;DHT22;31871;49.418;8.752;2022-11-11T10:32:25;10.40;99.90
46137;DHT22;31871;49.418;8.752;2022-11-11T10:34:51;10.40;99.90
46137;DHT22;31871;49.418;8.752;2022-11-11T10:37:22;10.50;99.90
46137;DHT22;31871;49.418;8.752;2022-11-11T10:40:08;10.50;99.90
46137;DHT22;31871;49.418;8.752;2022-11-11T10:42:39;10.60;99.90
46137;DHT22;31871;49.418;8.752;2022-11-11T10:45:18;10.70;99.90
46137;DHT22;31871;49.418;8.752;2022-11-11T10:48:11;10.80;99.90
46137;DHT22;31871;49.418;8.752;2022-11-11T10:50:37;11.00;99.90
46137;DHT22;31871;49.418;8.752;2022-11-11T10:53:34;11.20;99.90
46137;DHT22;31871;49.418;8.752;2022-11-11T10:56:00;11.50;99.90
46137;DHT22;31871;49.418;8.752;2022-11-11T10:58:36;11.70;99.90
46137;DHT22;31871;49.418;8.752;2022-11-11T11:01:07;11.80;99.90
46137;DHT22;31871;49.418;8.752;2022-11-11T11:03:42;11.90;99.90
46137;DHT22;31871;49.418;8.752;2022-11-11T11:06:24;11.90;99.90
46137;DHT22;31871;49.418;8.752;2022-11-11T11:08:54;11.90;99.90
46137;DHT22;31871;49.418;8.752;2022-11-11T11:11:32;12.00;99.90
46137;DHT22;31871;49.418;8.752;2022-11-11T11:14:04;12.10;99.90
46137;DHT22;31871;49.418;8.752;2022-11-11T11:16:38;12.30;99.90
46137;DHT22;31871;49.418;8.752;2022-11-11T11:19:22;12.50;99.90
46137;DHT22;31871;49.418;8.752;2022-11-11T11:21:53;12.60;99.90
46137;DHT22;31871;49.418;8.752;2022-11-11T11:24:30;12.60;99.90
46137;DHT22;31871;49.418;8.752;2022-11-11T11:27:02;12.50;99.90
46137;DHT22;31871;49.418;8.752;2022-11-11T11:32:30;12.80;99.90
46137;DHT22;31871;49.418;8.752;2022-11-11T11:34:56;13.00;99.90
46137;DHT22;31871;49.418;8.752;2022-11-11T11:37:24;13.20;99.90
46137;DHT22;31871;49.418;8.752;2022-11-11T11:40:01;13.40;99.90
46137;DHT22;31871;49.418;8.752;2022-11-11T11:42:32;13.40;99.90
46137;DHT22;31871;49.418;8.752;2022-11-11T11:47:50;13.60;99.90
46137;DHT22;31871;49.418;8.752;2022-11-11T11:50:41;13.60;99.90
46137;DHT22;31871;49.418;8.752;2022-11-11T11:56:19;13.80;99.90
46137;DHT22;31871;49.418;8.752;2022-11-11T12:04:44;14.10;99.90
46137;DHT22;31871;49.418;8.752;2022-11-11T12:10:27;14.40;99.90
46137;DHT22;31871;49.418;8.752;2022-11-11T12:15:32;14.80;99.90
46137;DHT22;31871;49.418;8.752;2022-11-11T12:23:30;14.90;99.90
46137;DHT22;31871;49.418;8.752;2022-11-11T12:26:17;15.00;99.90
46137;DHT22;31871;49.418;8.752;2022-11-11T12:29:06;14.90;99.90
46137;DHT22;31871;49.418;8.752;2022-11-11T12:31:51;14.80;99.90
46137;DHT22;31871;49.418;8.752;2022-11-11T12:40:32;14.40;99.90
46137;DHT22;31871;49.418;8.752;2022-11-11T12:45:51;14.30;99.90
46137;DHT22;31871;49.418;8.752;2022-11-11T12:51:38;14.10;99.90
46137;DHT22;31871;49.418;8.752;2022-11-11T12:54:23;13.80;99.90
46137;DHT22;31871;49.418;8.752;2022-11-11T13:00:19;13.70;99.90
46137;DHT22;31871;49.418;8.752;2022-11-11T13:06:01;13.60;99.90
46137;DHT22;31871;49.418;8.752;2022-11-11T13:08:58;13.50;99.90
46137;DHT22;31871;49.418;8.752;2022-11-11T13:16:54;13.40;99.90
46137;DHT22;31871;49.418;8.752;2022-11-11T13:19:24;13.40;99.90
46137;DHT22;31871;49.418;8.752;2022-11-11T13:21:56;13.20;99.90
46137;DHT22;31871;49.418;8.752;2022-11-11T13:24:24;13.10;99.90
46137;DHT22;31871;49.418;8.752;2022-11-11T13:27:01;13.10;99.90
46137;DHT22;31871;49.418;8.752;2022-11-11T13:32:12;12.90;99.90
46137;DHT22;31871;49.418;8.752;2022-11-11T13:34:39;13.00;99.90
46137;DHT22;31871;49.418;8.752;2022-11-11T13:37:07;13.30;99.90
46137;DHT22;31871;49.418;8.752;2022-11-11T13:39:43;13.60;99.90
46137;DHT22;31871;49.418;8.752;2022-11-11T13:42:12;14.10;99.90
46137;DHT22;31871;49.418;8.752;2022-11-11T13:44:52;14.30;99.90
46137;DHT22;31871;49.418;8.752;2022-11-11T13:47:21;14.40;99.90
46137;DHT22;31871;49.418;8.752;2022-11-11T13:50:02;14.50;99.90
46137;DHT22;31871;49.418;8.752;2022-11-11T13:52:35;14.50;99.90
46137;DHT22;31871;49.418;8.752;2022-11-11T13:55:05;14.40;99.90
46137;DHT22;31871;49.418;8.752;2022-11-11T13:57:32;14.30;99.90
46137;DHT22;31871;49.418;8.752;2022-11-11T14:00:05;14.30;99.90
46137;DHT22;31871;49.418;8.752;2022-11-11T14:02:33;14.00;99.90
46137;DHT22;31871;49.418;8.752;2022-11-11T14:15:31;13.50;99.90
46137;DHT22;31871;49.418;8.752;2022-11-11T14:17:57;13.30;99.90
46137;DHT22;31871;49.418;8.752;2022-11-11T14:20:33;13.10;99.90
46137;DHT22;31871;49.418;8.752;2022-11-11T14:23:39;12.90;99.90
46137;DHT22;31871;49.418;8.752;2022-11-11T14:28:33;12.60;99.90
46137;DHT22;31871;49.418;8.752;2022-11-11T14:41:52;12.20;99.90
46137;DHT22;31871;49.418;8.752;2022-11-11T14:44:38;12.10;99.90
46137;DHT22;31871;49.418;8.752;2022-11-11T14:52:40;12.00;99.90
46137;DHT22;31871;49.418;8.752;2022-11-11T14:55:34;11.90;99.90
46137;DHT22;31871;49.418;8.752;2022-11-11T14:58:12;11.90;99.90
46137;DHT22;31871;49.418;8.752;2022-11-11T15:01:01;11.80;99.90
46137;DHT22;31871;49.418;8.752;2022-11-11T15:03:54;11.90;99.90
46137;DHT22;31871;49.418;8.752;2022-11-11T15:06:27;11.90;99.90
46137;DHT22;31871;49.418;8.752;2022-11-11T15:09:30;11.90;99.90
46137;DHT22;31871;49.418;8.752;2022-11-11T15:15:07;11.80;99.90
46137;DHT22;31871;49.418;8.752;2022-11-11T15:26:15;11.60;99.90
46137;DHT22;31871;49.418;8.752;2022-11-11T15:28:51;11.50;99.90
46137;DHT22;31871;49.418;8.752;2022-11-11T15:31:29;11.60;99.90
46137;DHT22;31871;49.418;8.752;2022-11-11T15:34:27;11.60;99.90
46137;DHT22;31871;49.418;8.752;2022-11-11T15:39:55;11.40;99.90
46137;DHT22;31871;49.418;8.752;2022-11-11T15:45:00;11.40;99.90
46137;DHT22;31871;49.418;8.752;2022-11-11T15:47:26;11.40;99.90
46137;DHT22;31871;49.418;8.752;2022-11-11T15:49:52;11.30;99.90
46137;DHT22;31871;49.418;8.752;2022-11-11T15:52:32;11.10;99.90
46137;DHT22;31871;49.418;8.752;2022-11-11T15:54:59;11.10;99.90
46137;DHT22;31871;49.418;8.752;2022-11-11T15:59:52;11.20;99.90
46137;DHT22;31871;49.418;8.752;2022-11-11T16:02:44;11.20;99.90
46137;DHT22;31871;49.418;8.752;2022-11-11T16:05:26;11.20;99.90
46137;DHT22;31871;49.418;8.752;2022-11-11T16:07:55;11.00;99.90
46137;DHT22;31871;49.418;8.752;2022-11-11T16:10:31;11.10;99.90
46137;DHT22;31871;49.418;8.752;2022-11-11T16:13:02;11.10;99.90
46137;DHT22;31871;49.418;8.752;2022-11-11T16:18:09;11.10;99.90
46137;DHT22;31871;49.418;8.752;2022-11-11T16:20:42;11.10;99.90
46137;DHT22;31871;49.418;8.752;2022-11-11T16:23:15;11.00;99.90
46137;DHT22;31871;49.418;8.752;2022-11-11T16:25:41;11.00;99.90
46137;DHT22;31871;49.418;8.752;2022-11-11T16:28:08;11.10;99.90
46137;DHT22;31871;49.418;8.752;2022-11-11T16:30:36;11.00;99.90
46137;DHT22;31871;49.418;8.752;2022-11-11T16:33:03;11.00;99.90
46137;DHT22;31871;49.418;8.752;2022-11-11T16:35:35;11.00;99.90
46137;DHT22;31871;49.418;8.752;2022-11-11T16:38:02;11.00;99.90
46137;DHT22;31871;49.418;8.752;2022-11-11T16:46:00;10.90;99.90
46137;DHT22;31871;49.418;8.752;2022-11-11T16:53:35;10.70;99.90
46137;DHT22;31871;49.418;8.752;2022-11-11T16:56:03;10.60;99.90
46137;DHT22;31871;49.418;8.752;2022-11-11T16:58:29;10.40;99.90
46137;DHT22;31871;49.418;8.752;2022-11-11T17:00:59;10.20;99.90
46137;DHT22;31871;49.418;8.752;2022-11-11T17:03:26;10.00;99.90
46137;DHT22;31871;49.418;8.752;2022-11-11T17:06:05;10.00;99.90
46137;DHT22;31871;49.418;8.752;2022-11-11T17:08:42;10.20;99.90
46137;DHT22;31871;49.418;8.752;2022-11-11T17:11:10;10.30;99.90
46137;DHT22;31871;49.418;8.752;2022-11-11T17:13:36;10.20;99.90
46137;DHT22;31871;49.418;8.752;2022-11-11T17:16:04;10.00;99.90
46137;DHT22;31871;49.418;8.752;2022-11-11T17:18:37;9.80;99.90
46137;DHT22;31871;49.418;8.752;2022-11-11T17:21:04;9.70;99.90
46137;DHT22;31871;49.418;8.752;2022-11-11T17:23:29;9.60;99.90
46137;DHT22;31871;49.418;8.752;2022-11-11T17:25:56;9.60;99.90
46137;DHT22;31871;49.418;8.752;2022-11-11T17:28:25;9.60;99.90
46137;DHT22;31871;49.418;8.752;2022-11-11T17:30:51;9.60;99.90
46137;DHT22;31871;49.418;8.752;2022-11-11T17:33:17;9.60;99.90
46137;DHT22;31871;49.418;8.752;2022-11-11T17:35:50;9.60;99.90
46137;DHT22;31871;49.418;8.752;2022-11-11T17:38:16;9.60;99.90
46137;DHT22;31871;49.418;8.752;2022-11-11T17:40:46;9.60;99.90
46137;DHT22;31871;49.418;8.752;2022-11-11T17:43:12;9.60;99.90
46137;DHT22;31871;49.418;8.752;2022-11-11T17:45:38;9.70;99.90
46137;DHT22;31871;49.418;8.752;2022-11-11T17:48:04;9.70;99.90
46137;DHT22;31871;49.418;8.752;2022-11-11T17:50:30;9.70;99.90
46137;DHT22;31871;49.418;8.752;2022-11-11T17:52:55;9.80;99.90
46137;DHT22;31871;49.418;8.752;2022-11-11T17:55:22;9.80;99.90
46137;DHT22;31871;49.418;8.752;2022-11-11T17:57:48;9.80;99.90
46137;DHT22;31871;49.418;8.752;2022-11-11T18:00:14;9.80;99.90
46137;DHT22;31871;49.418;8.752;2022-11-11T18:02:40;9.90;99.90
46137;DHT22;31871;49.418;8.752;2022-11-11T18:05:06;9.90;99.90
46137;DHT22;31871;49.418;8.752;2022-11-11T18:07:32;9.80;99.90
46137;DHT22;31871;49.418;8.752;2022-11-11T18:09:58;9.70;99.90
46137;DHT22;31871;49.418;8.752;2022-11-11T18:12:23;9.70;99.90
46137;DHT22;31871;49.418;8.752;2022-11-11T18:14:49;9.80;99.90
46137;DHT22;31871;49.418;8.752;2022-11-11T18:17:14;9.90;99.90
46137;DHT22;31871;49.418;8.752;2022-11-11T18:19:40;9.80;99.90